sensor_id;sensor_type;location;lat;lon;timestamp;pressure;altitude;pressure_sealevel;temperature;humidity
57568;BME280;43403;51.948;5.922;2023-01-31T00:01:05;102346.06;;;3.76;100.00
57568;BME280;43403;51.948;5.922;2023-01-31T00:03:32;102335.81;;;3.73;100.00
57568;BME280;43403;51.948;5.922;2023-01-31T00:06:08;102341.06;;;3.72;100.00
57568;BME280;43403;51.948;5.922;2023-01-31T00:08:34;102358.59;;;3.67;100.00
57568;BME280;43403;51.948;5.922;2023-01-31T00:11:01;102363.06;;;3.63;100.00
57568;BME280;43403;51.948;5.922;2023-01-31T00:13:27;102363.06;;;3.63;100.00
57568;BME280;43403;51.948;5.922;2023-01-31T00:15:56;102365.72;;;3.62;100.00
57568;BME280;43403;51.948;5.922;2023-01-31T00:18:23;102364.09;;;3.59;100.00
57568;BME280;43403;51.948;5.922;2023-01-31T00:20:49;102358.97;;;3.58;100.00
57568;BME280;43403;51.948;5.922;2023-01-31T00:23:15;102370.44;;;3.52;100.00
57568;BME280;43403;51.948;5.922;2023-01-31T00:25:43;102374.72;;;3.53;100.00
57568;BME280;43403;51.948;5.922;2023-01-31T00:28:10;102368.19;;;3.43;100.00
57568;BME280;43403;51.948;5.922;2023-01-31T00:30:36;102362.97;;;3.44;100.00
57568;BME280;43403;51.948;5.922;2023-01-31T00:33:03;102361.09;;;3.48;100.00
57568;BME280;43403;51.948;5.922;2023-01-31T00:35:29;102364.72;;;3.44;100.00
57568;BME280;43403;51.948;5.922;2023-01-31T00:37:55;102362.38;;;3.38;100.00
57568;BME280;43403;51.948;5.922;2023-01-31T00:40:22;102360.72;;;3.35;100.00
57568;BME280;43403;51.948;5.922;2023-01-31T00:42:48;102361.66;;;3.34;100.00
57568;BME280;43403;51.948;5.922;2023-01-31T00:45:14;102345.25;;;3.33;100.00
57568;BME280;43403;51.948;5.922;2023-01-31T00:47:41;102340.13;;;3.32;100.00
57568;BME280;43403;51.948;5.922;2023-01-31T00:50:08;102329.81;;;3.30;100.00
57568;BME280;43403;51.948;5.922;2023-01-31T00:52:35;102330.16;;;3.21;100.00
57568;BME280;43403;51.948;5.922;2023-01-31T00:55:02;102338.97;;;3.17;100.00
57568;BME280;43403;51.948;5.922;2023-01-31T00:57:28;102332.13;;;3.16;100.00
57568;BME280;43403;51.948;5.922;2023-01-31T00:59:54;102331.25;;;3.15;100.00
57568;BME280;43403;51.948;5.922;2023-01-31T01:02:21;102324.44;;;3.13;100.00
57568;BME280;43403;51.948;5.922;2023-01-31T01:04:47;102323.47;;;3.15;100.00
57568;BME280;43403;51.948;5.922;2023-01-31T01:07:14;102321.03;;;3.12;100.00
57568;BME280;43403;51.948;5.922;2023-01-31T01:09:40;102333.16;;;3.12;100.00
57568;BME280;43403;51.948;5.922;2023-01-31T01:12:07;102326.25;;;3.11;100.00
57568;BME280;43403;51.948;5.922;2023-01-31T01:14:33;102315.88;;;3.11;100.00
57568;BME280;43403;51.948;5.922;2023-01-31T01:17:00;102309.09;;;3.08;100.00
57568;BME280;43403;51.948;5.922;2023-01-31T01:19:26;102309.19;;;3.05;100.00
57568;BME280;43403;51.948;5.922;2023-01-31T01:21:53;102311.84;;;3.04;100.00
57568;BME280;43403;51.948;5.922;2023-01-31T01:24:20;102316.09;;;3.06;100.00
57568;BME280;43403;51.948;5.922;2023-01-31T01:26:46;102312.63;;;3.06;100.00
57568;BME280;43403;51.948;5.922;2023-01-31T01:29:13;102315.16;;;3.07;100.00
57568;BME280;43403;51.948;5.922;2023-01-31T01:31:39;102314.31;;;3.07;100.00
57568;BME280;43403;51.948;5.922;2023-01-31T01:34:07;102318.69;;;3.06;100.00
57568;BME280;43403;51.948;5.922;2023-01-31T01:36:36;102328.31;;;3.03;100.00
57568;BME280;43403;51.948;5.922;2023-01-31T01:39:04;102330.97;;;3.01;100.00
57568;BME280;43403;51.948;5.922;2023-01-31T01:41:31;102335.31;;;3.01;100.00
57568;BME280;43403;51.948;5.922;2023-01-31T01:44:02;102336.28;;;2.98;100.00
57568;BME280;43403;51.948;5.922;2023-01-31T01:48:58;102332.81;;;2.97;100.00
57568;BME280;43403;51.948;5.922;2023-01-31T01:51:26;102332.03;;;2.95;100.00
57568;BME280;43403;51.948;5.922;2023-01-31T01:53:54;102332.03;;;2.95;100.00
57568;BME280;43403;51.948;5.922;2023-01-31T01:56:23;102336.63;;;2.89;100.00
57568;BME280;43403;51.948;5.922;2023-01-31T01:59:09;102331.44;;;2.89;100.00
57568;BME280;43403;51.948;5.922;2023-01-31T02:01:37;102337.47;;;2.89;100.00
57568;BME280;43403;51.948;5.922;2023-01-31T02:04:05;102323.78;;;2.86;100.00
57568;BME280;43403;51.948;5.922;2023-01-31T02:06:32;102324.50;;;2.89;100.00
57568;BME280;43403;51.948;5.922;2023-01-31T02:08:59;102329.75;;;2.88;100.00
57568;BME280;43403;51.948;5.922;2023-01-31T02:11:27;102332.34;;;2.88;100.00
57568;BME280;43403;51.948;5.922;2023-01-31T02:13:56;102330.66;;;2.87;100.00
57568;BME280;43403;51.948;5.922;2023-01-31T02:16:24;102334.03;;;2.89;100.00
57568;BME280;43403;51.948;5.922;2023-01-31T02:18:50;102337.53;;;2.88;100.00
57568;BME280;43403;51.948;5.922;2023-01-31T02:31:46;102332.09;;;2.94;100.00
57568;BME280;43403;51.948;5.922;2023-01-31T02:34:33;102336.38;;;2.95;100.00
57568;BME280;43403;51.948;5.922;2023-01-31T02:37:16;102331.22;;;2.95;100.00
57568;BME280;43403;51.948;5.922;2023-01-31T02:39:54;102324.09;;;3.00;100.00
57568;BME280;43403;51.948;5.922;2023-01-31T02:42:27;102327.47;;;3.02;100.00
57568;BME280;43403;51.948;5.922;2023-01-31T02:45:00;102323.25;;;3.00;100.00
57568;BME280;43403;51.948;5.922;2023-01-31T02:47:37;102311.97;;;3.01;100.00
57568;BME280;43403;51.948;5.922;2023-01-31T02:50:11;102303.16;;;3.05;100.00
57568;BME280;43403;51.948;5.922;2023-01-31T02:52:40;102297.00;;;3.07;100.00
57568;BME280;43403;51.948;5.922;2023-01-31T02:55:12;102308.88;;;3.13;100.00
57568;BME280;43403;51.948;5.922;2023-01-31T02:57:59;102308.84;;;3.14;100.00
57568;BME280;43403;51.948;5.922;2023-01-31T03:00:27;102296.72;;;3.15;100.00
57568;BME280;43403;51.948;5.922;2023-01-31T03:02:54;102288.66;;;3.21;100.00
57568;BME280;43403;51.948;5.922;2023-01-31T03:05:21;102281.75;;;3.22;100.00
57568;BME280;43403;51.948;5.922;2023-01-31T03:07:50;102280.00;;;3.22;100.00
57568;BME280;43403;51.948;5.922;2023-01-31T03:10:19;102277.25;;;3.25;100.00
57568;BME280;43403;51.948;5.922;2023-01-31T03:16:36;102268.38;;;3.31;100.00
57568;BME280;43403;51.948;5.922;2023-01-31T03:21:20;102272.53;;;3.35;100.00
57568;BME280;43403;51.948;5.922;2023-01-31T03:23:49;102275.03;;;3.38;100.00
57568;BME280;43403;51.948;5.922;2023-01-31T03:26:16;102274.19;;;3.38;100.00
57568;BME280;43403;51.948;5.922;2023-01-31T03:28:46;102272.44;;;3.38;100.00
57568;BME280;43403;51.948;5.922;2023-01-31T03:31:16;102264.38;;;3.44;100.00
57568;BME280;43403;51.948;5.922;2023-01-31T03:33:45;102277.16;;;3.49;100.00
57568;BME280;43403;51.948;5.922;2023-01-31T03:38:50;102266.66;;;3.52;100.00
57568;BME280;43403;51.948;5.922;2023-01-31T03:41:23;102267.38;;;3.55;100.00
57568;BME280;43403;51.948;5.922;2023-01-31T03:44:08;102275.09;;;3.57;100.00
57568;BME280;43403;51.948;5.922;2023-01-31T03:46:38;102268.88;;;3.61;100.00
57568;BME280;43403;51.948;5.922;2023-01-31T03:49:06;102262.75;;;3.62;100.00
57568;BME280;43403;51.948;5.922;2023-01-31T03:51:35;102265.16;;;3.67;100.00
57568;BME280;43403;51.948;5.922;2023-01-31T03:54:06;102268.72;;;3.64;100.00
57568;BME280;43403;51.948;5.922;2023-01-31T03:56:39;102256.41;;;3.69;100.00
57568;BME280;43403;51.948;5.922;2023-01-31T03:59:11;102254.50;;;3.73;100.00
57568;BME280;43403;51.948;5.922;2023-01-31T04:01:40;102249.31;;;3.73;100.00
57568;BME280;43403;51.948;5.922;2023-01-31T04:04:12;102247.56;;;3.73;100.00
57568;BME280;43403;51.948;5.922;2023-01-31T04:06:41;102256.06;;;3.77;100.00
57568;BME280;43403;51.948;5.922;2023-01-31T04:09:07;102253.59;;;3.74;100.00
57568;BME280;43403;51.948;5.922;2023-01-31T04:11:37;102243.09;;;3.77;100.00
57568;BME280;43403;51.948;5.922;2023-01-31T04:14:04;102247.34;;;3.78;100.00
57568;BME280;43403;51.948;5.922;2023-01-31T04:16:31;102244.69;;;3.80;100.00
57568;BME280;43403;51.948;5.922;2023-01-31T04:18:57;102240.56;;;3.75;100.00
57568;BME280;43403;51.948;5.922;2023-01-31T04:21:24;102242.25;;;3.76;100.00
57568;BME280;43403;51.948;5.922;2023-01-31T04:23:50;102248.28;;;3.77;100.00
57568;BME280;43403;51.948;5.922;2023-01-31T04:26:16;102244.13;;;3.73;100.00
57568;BME280;43403;51.948;5.922;2023-01-31T04:28:43;102234.47;;;3.76;100.00
57568;BME280;43403;51.948;5.922;2023-01-31T04:31:09;102235.50;;;3.72;100.00
57568;BME280;43403;51.948;5.922;2023-01-31T04:33:36;102233.81;;;3.71;100.00
57568;BME280;43403;51.948;5.922;2023-01-31T04:36:02;102236.34;;;3.73;100.00
57568;BME280;43403;51.948;5.922;2023-01-31T04:38:28;102237.19;;;3.73;100.00
57568;BME280;43403;51.948;5.922;2023-01-31T04:40:55;102232.13;;;3.70;100.00
57568;BME280;43403;51.948;5.922;2023-01-31T04:43:21;102231.09;;;3.74;100.00
57568;BME280;43403;51.948;5.922;2023-01-31T04:45:48;102233.75;;;3.73;100.00
57568;BME280;43403;51.948;5.922;2023-01-31T04:48:14;102225.97;;;3.73;100.00
57568;BME280;43403;51.948;5.922;2023-01-31T04:50:40;102218.69;;;3.81;100.00
57568;BME280;43403;51.948;5.922;2023-01-31T04:53:07;102220.44;;;3.81;100.00
57568;BME280;43403;51.948;5.922;2023-01-31T04:55:34;102214.38;;;3.80;100.00
57568;BME280;43403;51.948;5.922;2023-01-31T04:58:01;102209.19;;;3.80;100.00
57568;BME280;43403;51.948;5.922;2023-01-31T05:00:30;102214.31;;;3.82;100.00
57568;BME280;43403;51.948;5.922;2023-01-31T05:02:57;102210.06;;;3.81;100.00
57568;BME280;43403;51.948;5.922;2023-01-31T05:05:23;102205.75;;;3.80;100.00
57568;BME280;43403;51.948;5.922;2023-01-31T05:07:49;102207.59;;;3.78;100.00
57568;BME280;43403;51.948;5.922;2023-01-31T05:10:16;102194.59;;;3.78;100.00
57568;BME280;43403;51.948;5.922;2023-01-31T05:12:43;102186.88;;;3.76;100.00
57568;BME280;43403;51.948;5.922;2023-01-31T05:15:10;102173.06;;;3.75;100.00
57568;BME280;43403;51.948;5.922;2023-01-31T05:17:37;102175.53;;;3.79;100.00
57568;BME280;43403;51.948;5.922;2023-01-31T05:20:03;102182.63;;;3.75;100.00
57568;BME280;43403;51.948;5.922;2023-01-31T05:22:30;102178.31;;;3.74;100.00
57568;BME280;43403;51.948;5.922;2023-01-31T05:24:56;102178.25;;;3.75;100.00
57568;BME280;43403;51.948;5.922;2023-01-31T05:27:23;102179.03;;;3.78;100.00
57568;BME280;43403;51.948;5.922;2023-01-31T05:29:50;102166.75;;;3.81;100.00
57568;BME280;43403;51.948;5.922;2023-01-31T05:32:17;102177.91;;;3.83;100.00
57568;BME280;43403;51.948;5.922;2023-01-31T05:34:44;102183.06;;;3.85;100.00
57568;BME280;43403;51.948;5.922;2023-01-31T05:37:11;102184.59;;;3.89;100.00
57568;BME280;43403;51.948;5.922;2023-01-31T05:39:37;102179.34;;;3.90;100.00
57568;BME280;43403;51.948;5.922;2023-01-31T05:42:04;102184.72;;;3.86;100.00
57568;BME280;43403;51.948;5.922;2023-01-31T05:44:30;102182.13;;;3.86;100.00
57568;BME280;43403;51.948;5.922;2023-01-31T05:46:57;102179.41;;;3.89;100.00
57568;BME280;43403;51.948;5.922;2023-01-31T05:49:26;102180.03;;;3.94;100.00
57568;BME280;43403;51.948;5.922;2023-01-31T05:51:58;102175.19;;;3.86;100.00
57568;BME280;43403;51.948;5.922;2023-01-31T05:54:25;102164.59;;;3.91;100.00
57568;BME280;43403;51.948;5.922;2023-01-31T05:56:52;102162.91;;;3.90;100.00
57568;BME280;43403;51.948;5.922;2023-01-31T05:59:18;102159.28;;;3.94;100.00
57568;BME280;43403;51.948;5.922;2023-01-31T06:01:44;102162.06;;;3.89;100.00
57568;BME280;43403;51.948;5.922;2023-01-31T06:04:11;102156.09;;;3.87;100.00
57568;BME280;43403;51.948;5.922;2023-01-31T06:06:37;102152.50;;;3.90;100.00
57568;BME280;43403;51.948;5.922;2023-01-31T06:09:03;102160.41;;;3.88;100.00
57568;BME280;43403;51.948;5.922;2023-01-31T06:11:30;102156.88;;;3.89;100.00
57568;BME280;43403;51.948;5.922;2023-01-31T06:13:57;102157.69;;;3.90;100.00
57568;BME280;43403;51.948;5.922;2023-01-31T06:16:24;102144.59;;;3.93;100.00
57568;BME280;43403;51.948;5.922;2023-01-31T06:18:50;102138.50;;;3.94;100.00
57568;BME280;43403;51.948;5.922;2023-01-31T06:21:17;102141.78;;;3.97;100.00
57568;BME280;43403;51.948;5.922;2023-01-31T06:23:43;102127.31;;;3.92;100.00
57568;BME280;43403;51.948;5.922;2023-01-31T06:26:11;102130.78;;;3.92;100.00
57568;BME280;43403;51.948;5.922;2023-01-31T06:28:37;102130.78;;;3.92;100.00
57568;BME280;43403;51.948;5.922;2023-01-31T06:31:07;102132.59;;;3.90;100.00
57568;BME280;43403;51.948;5.922;2023-01-31T06:33:34;102127.25;;;3.93;100.00
57568;BME280;43403;51.948;5.922;2023-01-31T06:36:12;102127.19;;;3.95;100.00
57568;BME280;43403;51.948;5.922;2023-01-31T06:38:38;102121.28;;;3.91;100.00
57568;BME280;43403;51.948;5.922;2023-01-31T06:41:05;102115.03;;;3.95;100.00
57568;BME280;43403;51.948;5.922;2023-01-31T06:43:31;102118.56;;;3.94;100.00
57568;BME280;43403;51.948;5.922;2023-01-31T06:45:58;102125.44;;;3.95;100.00
57568;BME280;43403;51.948;5.922;2023-01-31T06:48:24;102123.41;;;4.02;100.00
57568;BME280;43403;51.948;5.922;2023-01-31T06:50:50;102117.50;;;3.99;100.00
57568;BME280;43403;51.948;5.922;2023-01-31T06:53:17;102112.31;;;3.99;100.00
57568;BME280;43403;51.948;5.922;2023-01-31T06:55:43;102120.94;;;3.99;100.00
57568;BME280;43403;51.948;5.922;2023-01-31T06:58:09;102114.06;;;3.98;100.00
57568;BME280;43403;51.948;5.922;2023-01-31T07:00:36;102116.44;;;4.03;100.00
57568;BME280;43403;51.948;5.922;2023-01-31T07:03:02;102115.63;;;4.02;100.00
57568;BME280;43403;51.948;5.922;2023-01-31T07:05:28;102109.28;;;4.08;100.00
57568;BME280;43403;51.948;5.922;2023-01-31T07:07:55;102102.28;;;4.10;100.00
57568;BME280;43403;51.948;5.922;2023-01-31T07:10:22;102108.22;;;4.12;100.00
57568;BME280;43403;51.948;5.922;2023-01-31T07:12:48;102100.28;;;4.15;100.00
57568;BME280;43403;51.948;5.922;2023-01-31T07:15:14;102098.81;;;4.09;100.00
57568;BME280;43403;51.948;5.922;2023-01-31T07:17:41;102115.94;;;4.13;100.00
57568;BME280;43403;51.948;5.922;2023-01-31T07:20:09;102107.31;;;4.13;100.00
57568;BME280;43403;51.948;5.922;2023-01-31T07:22:36;102103.88;;;4.12;100.00
57568;BME280;43403;51.948;5.922;2023-01-31T07:25:02;102094.19;;;4.16;100.00
57568;BME280;43403;51.948;5.922;2023-01-31T07:27:28;102096.78;;;4.16;100.00
57568;BME280;43403;51.948;5.922;2023-01-31T07:29:55;102101.91;;;4.18;100.00
57568;BME280;43403;51.948;5.922;2023-01-31T07:32:21;102097.47;;;4.20;100.00
57568;BME280;43403;51.948;5.922;2023-01-31T07:34:47;102090.34;;;4.23;100.00
57568;BME280;43403;51.948;5.922;2023-01-31T07:37:15;102083.56;;;4.21;100.00
57568;BME280;43403;51.948;5.922;2023-01-31T07:39:41;102085.25;;;4.22;100.00
57568;BME280;43403;51.948;5.922;2023-01-31T07:42:07;102074.00;;;4.21;100.00
57568;BME280;43403;51.948;5.922;2023-01-31T07:44:33;102073.19;;;4.21;100.00
57568;BME280;43403;51.948;5.922;2023-01-31T07:47:00;102083.56;;;4.21;100.00
57568;BME280;43403;51.948;5.922;2023-01-31T07:49:26;102073.03;;;4.24;100.00
57568;BME280;43403;51.948;5.922;2023-01-31T07:51:52;102073.88;;;4.24;100.00
57568;BME280;43403;51.948;5.922;2023-01-31T07:54:19;102066.84;;;4.26;100.00
57568;BME280;43403;51.948;5.922;2023-01-31T07:56:45;102065.16;;;4.25;100.00
57568;BME280;43403;51.948;5.922;2023-01-31T07:59:12;102066.72;;;4.29;100.00
57568;BME280;43403;51.948;5.922;2023-01-31T08:01:39;102064.94;;;4.30;100.00
57568;BME280;43403;51.948;5.922;2023-01-31T08:04:24;102070.13;;;4.30;100.00
57568;BME280;43403;51.948;5.922;2023-01-31T08:06:52;102067.31;;;4.34;100.00
57568;BME280;43403;51.948;5.922;2023-01-31T08:09:19;102055.16;;;4.35;100.00
57568;BME280;43403;51.948;5.922;2023-01-31T08:11:45;102061.34;;;4.32;100.00
57568;BME280;43403;51.948;5.922;2023-01-31T08:14:12;102059.38;;;4.38;100.00
57568;BME280;43403;51.948;5.922;2023-01-31T08:16:38;102069.91;;;4.34;100.00
57568;BME280;43403;51.948;5.922;2023-01-31T08:19:05;102056.53;;;4.42;100.00
57568;BME280;43403;51.948;5.922;2023-01-31T08:21:31;102057.31;;;4.44;100.00
57568;BME280;43403;51.948;5.922;2023-01-31T08:23:58;102072.97;;;4.43;100.00
57568;BME280;43403;51.948;5.922;2023-01-31T08:26:24;102063.31;;;4.45;100.00
57568;BME280;43403;51.948;5.922;2023-01-31T08:28:51;102067.00;;;4.41;100.00
57568;BME280;43403;51.948;5.922;2023-01-31T08:31:22;102051.19;;;4.45;100.00
57568;BME280;43403;51.948;5.922;2023-01-31T08:33:49;102049.44;;;4.46;100.00
57568;BME280;43403;51.948;5.922;2023-01-31T08:36:19;102042.47;;;4.46;100.00
57568;BME280;43403;51.948;5.922;2023-01-31T08:38:45;102031.25;;;4.46;100.00
57568;BME280;43403;51.948;5.922;2023-01-31T08:41:12;102039.72;;;4.49;100.00
57568;BME280;43403;51.948;5.922;2023-01-31T08:43:39;102031.63;;;4.55;100.00
57568;BME280;43403;51.948;5.922;2023-01-31T08:46:20;102028.09;;;4.56;100.00
57568;BME280;43403;51.948;5.922;2023-01-31T08:48:46;102027.25;;;4.56;100.00
57568;BME280;43403;51.948;5.922;2023-01-31T08:51:13;102034.97;;;4.58;100.00
57568;BME280;43403;51.948;5.922;2023-01-31T08:53:40;102017.31;;;4.64;100.00
57568;BME280;43403;51.948;5.922;2023-01-31T08:56:09;102024.78;;;4.70;100.00
57568;BME280;43403;51.948;5.922;2023-01-31T08:58:36;102020.19;;;4.75;100.00
57568;BME280;43403;51.948;5.922;2023-01-31T09:01:07;102015.63;;;4.81;100.00
57568;BME280;43403;51.948;5.922;2023-01-31T09:03:34;102023.50;;;4.79;100.00
57568;BME280;43403;51.948;5.922;2023-01-31T09:06:00;102014.59;;;4.83;100.00
57568;BME280;43403;51.948;5.922;2023-01-31T09:08:28;102005.97;;;4.83;100.00
57568;BME280;43403;51.948;5.922;2023-01-31T09:10:55;102009.25;;;4.86;100.00
57568;BME280;43403;51.948;5.922;2023-01-31T09:13:22;102004.63;;;4.91;100.00
57568;BME280;43403;51.948;5.922;2023-01-31T09:16:02;102015.97;;;4.90;100.00
57568;BME280;43403;51.948;5.922;2023-01-31T09:18:29;102009.44;;;4.99;100.00
57568;BME280;43403;51.948;5.922;2023-01-31T09:20:56;102011.63;;;4.91;100.00
57568;BME280;43403;51.948;5.922;2023-01-31T09:23:27;102006.16;;;4.95;100.00
57568;BME280;43403;51.948;5.922;2023-01-31T09:25:54;101992.81;;;5.02;100.00
57568;BME280;43403;51.948;5.922;2023-01-31T09:28:21;101991.09;;;5.02;100.00
57568;BME280;43403;51.948;5.922;2023-01-31T09:30:48;101993.09;;;4.97;100.00
57568;BME280;43403;51.948;5.922;2023-01-31T09:33:15;102002.56;;;4.98;100.00
57568;BME280;43403;51.948;5.922;2023-01-31T09:35:41;101995.44;;;5.02;100.00
57568;BME280;43403;51.948;5.922;2023-01-31T09:38:08;101996.28;;;5.02;100.00
57568;BME280;43403;51.948;5.922;2023-01-31T09:40:34;101994.13;;;5.10;100.00
57568;BME280;43403;51.948;5.922;2023-01-31T09:43:03;101992.41;;;5.09;100.00
57568;BME280;43403;51.948;5.922;2023-01-31T09:45:31;101994.72;;;5.15;100.00
57568;BME280;43403;51.948;5.922;2023-01-31T09:47:59;102002.59;;;5.14;100.00
57568;BME280;43403;51.948;5.922;2023-01-31T09:52:58;101997.13;;;5.19;100.00
57568;BME280;43403;51.948;5.922;2023-01-31T09:57:59;101984.31;;;5.15;100.00
57568;BME280;43403;51.948;5.922;2023-01-31T10:03:01;101989.19;;;5.22;100.00
57568;BME280;43403;51.948;5.922;2023-01-31T10:05:43;101996.06;;;5.23;100.00
57568;BME280;43403;51.948;5.922;2023-01-31T10:10:50;102001.19;;;5.24;100.00
57568;BME280;43403;51.948;5.922;2023-01-31T10:13:20;101997.47;;;5.28;100.00
57568;BME280;43403;51.948;5.922;2023-01-31T10:15:59;101996.66;;;5.28;100.00
57568;BME280;43403;51.948;5.922;2023-01-31T10:18:29;101988.16;;;5.24;100.00
57568;BME280;43403;51.948;5.922;2023-01-31T10:20:59;101999.59;;;5.22;100.00
57568;BME280;43403;51.948;5.922;2023-01-31T10:23:33;101982.47;;;5.33;100.00
57568;BME280;43403;51.948;5.922;2023-01-31T10:26:02;101979.44;;;5.41;100.00
57568;BME280;43403;51.948;5.922;2023-01-31T10:28:37;101980.38;;;5.40;100.00
57568;BME280;43403;51.948;5.922;2023-01-31T10:38:54;101971.72;;;5.55;100.00
57568;BME280;43403;51.948;5.922;2023-01-31T10:42:07;101957.75;;;5.57;100.00
57568;BME280;43403;51.948;5.922;2023-01-31T10:44:16;101961.69;;;5.64;100.00
57568;BME280;43403;51.948;5.922;2023-01-31T10:46:46;101973.69;;;5.66;100.00
57568;BME280;43403;51.948;5.922;2023-01-31T10:49:12;101977.91;;;5.69;100.00
57568;BME280;43403;51.948;5.922;2023-01-31T10:54:27;101960.16;;;5.75;100.00
57568;BME280;43403;51.948;5.922;2023-01-31T10:56:58;101963.44;;;5.79;100.00
57568;BME280;43403;51.948;5.922;2023-01-31T10:59:29;101943.44;;;5.80;100.00
57568;BME280;43403;51.948;5.922;2023-01-31T11:01:58;101944.78;;;5.87;100.00
57568;BME280;43403;51.948;5.922;2023-01-31T11:06:51;101947.31;;;5.88;100.00
57568;BME280;43403;51.948;5.922;2023-01-31T11:09:18;101943.66;;;5.91;100.00
57568;BME280;43403;51.948;5.922;2023-01-31T11:11:57;101947.81;;;5.95;100.00
57568;BME280;43403;51.948;5.922;2023-01-31T11:14:24;101937.59;;;6.06;100.00
57568;BME280;43403;51.948;5.922;2023-01-31T11:17:35;101940.69;;;6.13;100.00
57568;BME280;43403;51.948;5.922;2023-01-31T11:19:45;101932.63;;;6.18;100.00
57568;BME280;43403;51.948;5.922;2023-01-31T11:22:26;101942.66;;;6.24;100.00
57568;BME280;43403;51.948;5.922;2023-01-31T11:24:54;101938.94;;;6.28;100.00
57568;BME280;43403;51.948;5.922;2023-01-31T11:27:26;101929.94;;;6.33;100.00
57568;BME280;43403;51.948;5.922;2023-01-31T11:29:52;101933.09;;;6.39;100.00
57568;BME280;43403;51.948;5.922;2023-01-31T11:32:29;101933.00;;;6.40;100.00
57568;BME280;43403;51.948;5.922;2023-01-31T11:35:01;101933.94;;;6.39;100.00
57568;BME280;43403;51.948;5.922;2023-01-31T11:37:32;101937.31;;;6.41;100.00
57568;BME280;43403;51.948;5.922;2023-01-31T11:40:01;101928.44;;;6.44;100.00
57568;BME280;43403;51.948;5.922;2023-01-31T11:42:28;101930.22;;;6.43;100.00
57568;BME280;43403;51.948;5.922;2023-01-31T11:44:58;101911.53;;;6.51;100.00
57568;BME280;43403;51.948;5.922;2023-01-31T11:50:18;101912.25;;;6.53;100.00
57568;BME280;43403;51.948;5.922;2023-01-31T11:52:46;101903.50;;;6.54;100.00
57568;BME280;43403;51.948;5.922;2023-01-31T11:55:19;101899.03;;;6.56;100.00
57568;BME280;43403;51.948;5.922;2023-01-31T11:57:45;101885.91;;;6.58;100.00
57568;BME280;43403;51.948;5.922;2023-01-31T12:02:45;101897.81;;;6.62;100.00
57568;BME280;43403;51.948;5.922;2023-01-31T12:05:15;101897.28;;;6.57;100.00
57568;BME280;43403;51.948;5.922;2023-01-31T12:07:46;101892.88;;;6.57;100.00
57568;BME280;43403;51.948;5.922;2023-01-31T12:10:32;101902.28;;;6.60;100.00
57568;BME280;43403;51.948;5.922;2023-01-31T12:13:00;101902.28;;;6.60;100.00
57568;BME280;43403;51.948;5.922;2023-01-31T12:23:34;101909.09;;;6.48;100.00
57568;BME280;43403;51.948;5.922;2023-01-31T12:26:13;101905.56;;;6.49;100.00
57568;BME280;43403;51.948;5.922;2023-01-31T12:33:53;101908.16;;;6.49;100.00
57568;BME280;43403;51.948;5.922;2023-01-31T12:36:33;101901.25;;;6.48;100.00
57568;BME280;43403;51.948;5.922;2023-01-31T12:41:38;101898.47;;;6.51;100.00
57568;BME280;43403;51.948;5.922;2023-01-31T12:52:15;101880.25;;;6.51;100.00
57568;BME280;43403;51.948;5.922;2023-01-31T12:54:50;101890.47;;;6.54;100.00
57568;BME280;43403;51.948;5.922;2023-01-31T13:03:02;101874.81;;;6.54;100.00
57568;BME280;43403;51.948;5.922;2023-01-31T13:05:47;101879.66;;;6.60;100.00
57568;BME280;43403;51.948;5.922;2023-01-31T13:08:18;101876.13;;;6.61;100.00
57568;BME280;43403;51.948;5.922;2023-01-31T13:10:47;101869.59;;;6.68;100.00
57568;BME280;43403;51.948;5.922;2023-01-31T13:13:18;101858.22;;;6.69;100.00
57568;BME280;43403;51.948;5.922;2023-01-31T13:15:48;101866.69;;;6.73;100.00
57568;BME280;43403;51.948;5.922;2023-01-31T13:18:15;101868.19;;;6.77;100.00
57568;BME280;43403;51.948;5.922;2023-01-31T13:20:47;101856.06;;;6.76;100.00
57568;BME280;43403;51.948;5.922;2023-01-31T13:23:19;101857.94;;;6.74;100.00
57568;BME280;43403;51.948;5.922;2023-01-31T13:25:50;101860.19;;;6.80;100.00
57568;BME280;43403;51.948;5.922;2023-01-31T13:28:19;101847.97;;;6.81;100.00
57568;BME280;43403;51.948;5.922;2023-01-31T13:30:49;101861.75;;;6.83;100.00
57568;BME280;43403;51.948;5.922;2023-01-31T13:33:19;101863.53;;;6.82;100.00
57568;BME280;43403;51.948;5.922;2023-01-31T13:36:14;101857.19;;;6.86;100.00
57568;BME280;43403;51.948;5.922;2023-01-31T13:38:40;101864.28;;;6.84;100.00
57568;BME280;43403;51.948;5.922;2023-01-31T13:41:08;101842.78;;;6.93;100.00
57568;BME280;43403;51.948;5.922;2023-01-31T13:43:38;101862.66;;;6.96;100.00
57568;BME280;43403;51.948;5.922;2023-01-31T13:46:05;101861.53;;;7.00;100.00
57568;BME280;43403;51.948;5.922;2023-01-31T13:48:34;101849.41;;;6.99;100.00
57568;BME280;43403;51.948;5.922;2023-01-31T13:51:08;101863.28;;;7.00;100.00
57568;BME280;43403;51.948;5.922;2023-01-31T13:53:44;101856.22;;;7.02;100.00
57568;BME280;43403;51.948;5.922;2023-01-31T13:56:15;101871.00;;;7.01;100.00
57568;BME280;43403;51.948;5.922;2023-01-31T13:58:43;101869.88;;;7.05;100.00
57568;BME280;43403;51.948;5.922;2023-01-31T14:01:17;101869.69;;;7.08;100.00
57568;BME280;43403;51.948;5.922;2023-01-31T14:09:25;101869.94;;;7.18;100.00
57568;BME280;43403;51.948;5.922;2023-01-31T14:11:54;101880.06;;;7.23;100.00
57568;BME280;43403;51.948;5.922;2023-01-31T14:17:10;101870.19;;;7.28;100.00
57568;BME280;43403;51.948;5.922;2023-01-31T14:22:15;101875.09;;;7.32;100.00
57568;BME280;43403;51.948;5.922;2023-01-31T14:28:08;101881.59;;;7.40;100.00
57568;BME280;43403;51.948;5.922;2023-01-31T14:30:21;101874.59;;;7.40;100.00
57568;BME280;43403;51.948;5.922;2023-01-31T14:32:56;101893.69;;;7.41;100.00